createdAt,value
2023-02-15T00:01:13.955Z,26.93
2023-02-15T00:06:15.742Z,24.20
2023-02-15T00:11:39.136Z,25.37
2023-02-15T00:16:43.091Z,26.45
2023-02-15T00:21:45.309Z,25.65
2023-02-15T00:26:48.133Z,26.00
2023-02-15T00:31:50.069Z,24.13
2023-02-15T00:36:52.700Z,22.92
2023-02-15T00:41:54.408Z,24.48
2023-02-15T00:46:56.066Z,25.53
2023-02-15T00:51:57.924Z,23.23
2023-02-15T00:56:59.862Z,27.25
2023-02-15T01:02:01.617Z,23.80
2023-02-15T01:07:05.006Z,25.30
2023-02-15T01:12:09.666Z,25.27
2023-02-15T01:22:12.996Z,22.02
2023-02-15T01:27:14.725Z,23.20
2023-02-15T01:32:16.399Z,22.50
2023-02-15T01:37:18.909Z,24.02
2023-02-15T01:42:25.148Z,24.27
2023-02-15T01:47:43.936Z,23.08
2023-02-15T01:52:54.079Z,23.45
2023-02-15T01:57:55.966Z,25.02
2023-02-15T02:02:58.078Z,22.67
2023-02-15T02:08:03.037Z,23.95
2023-02-15T02:13:07.843Z,24.40
2023-02-15T02:18:32.706Z,22.48
2023-02-15T02:24:05.413Z,22.48
2023-02-15T02:29:07.508Z,21.98
2023-02-15T02:34:30.851Z,23.47
2023-02-15T02:39:48.835Z,21.73
2023-02-15T02:44:58.178Z,23.35
2023-02-15T02:50:22.235Z,23.65
2023-02-15T02:55:39.030Z,21.38
2023-02-15T03:01:09.047Z,22.80
2023-02-15T03:06:18.887Z,20.15
2023-02-15T03:11:20.824Z,21.75
2023-02-15T03:21:36.157Z,22.50
2023-02-15T03:26:46.448Z,24.67
2023-02-15T03:31:54.775Z,24.02
2023-02-15T03:37:04.301Z,23.27
2023-02-15T03:42:17.654Z,22.23
2023-02-15T03:47:25.031Z,23.42
2023-02-15T03:52:30.590Z,23.05
2023-02-15T03:57:51.022Z,23.85
2023-02-15T04:03:00.086Z,21.13
2023-02-15T04:08:02.742Z,21.55
2023-02-15T04:13:04.403Z,20.58
2023-02-15T04:18:06.601Z,21.73
2023-02-15T04:23:27.249Z,23.95
2023-02-15T04:28:28.983Z,24.23
2023-02-15T04:33:30.803Z,21.23
2023-02-15T04:38:32.499Z,23.10
2023-02-15T04:43:34.153Z,23.57
2023-02-15T04:48:36.053Z,22.95
2023-02-15T04:53:37.860Z,24.13
2023-02-15T04:58:42.003Z,23.50
2023-02-15T05:03:43.651Z,22.75
2023-02-15T05:08:45.423Z,23.30
2023-02-15T05:13:47.743Z,24.60
2023-02-15T05:18:49.470Z,22.40
2023-02-15T05:23:51.255Z,24.27
2023-02-15T05:28:52.909Z,24.33
2023-02-15T05:33:54.704Z,27.13
2023-02-15T05:38:56.901Z,25.33
2023-02-15T05:43:58.625Z,22.17
2023-02-15T05:49:00.350Z,23.57
2023-02-15T05:54:02.022Z,23.77
2023-02-15T05:59:03.753Z,23.23
2023-02-15T06:04:05.512Z,23.50
2023-02-15T06:09:07.310Z,22.80
2023-02-15T06:14:09.060Z,23.77
2023-02-15T06:19:10.691Z,21.70
2023-02-15T06:24:12.622Z,23.23
2023-02-15T06:29:14.480Z,23.45
2023-02-15T06:34:16.868Z,23.33
2023-02-15T06:39:18.595Z,23.95
2023-02-15T06:44:20.293Z,24.83
2023-02-15T06:49:21.944Z,24.83
2023-02-15T06:54:23.609Z,24.60
2023-02-15T06:59:25.334Z,24.50
2023-02-15T07:04:29.597Z,24.80
2023-02-15T07:09:31.413Z,21.38
2023-02-15T07:14:33.140Z,23.77
2023-02-15T07:19:34.985Z,22.10
2023-02-15T07:24:37.025Z,23.40
2023-02-15T07:29:38.833Z,22.60
2023-02-15T07:34:41.462Z,21.37
2023-02-15T07:39:43.131Z,21.15
2023-02-15T07:44:44.777Z,21.13
2023-02-15T07:49:46.532Z,20.47
2023-02-15T07:54:48.259Z,20.37
2023-02-15T07:59:50.109Z,20.47
2023-02-15T08:04:51.891Z,19.33
2023-02-15T08:09:54.715Z,20.50
2023-02-15T08:14:56.434Z,20.08
2023-02-15T08:19:58.309Z,20.80
2023-02-15T08:25:00.313Z,20.08
2023-02-15T08:30:02.122Z,20.63
2023-02-15T08:35:03.976Z,22.70
2023-02-15T08:40:06.275Z,21.10
2023-02-15T08:45:08.524Z,22.13
2023-02-15T08:50:10.371Z,21.90
2023-02-15T08:55:12.102Z,20.90
2023-02-15T09:00:14.305Z,20.67
2023-02-15T09:05:16.029Z,23.05
2023-02-15T09:10:17.989Z,23.00
2023-02-15T09:15:19.792Z,21.13
2023-02-15T09:20:22.751Z,22.67
2023-02-15T09:30:26.182Z,22.20
2023-02-15T09:35:27.924Z,22.80
2023-02-15T09:40:39.109Z,24.73
2023-02-15T09:45:59.873Z,24.20
2023-02-15T09:51:17.906Z,22.33
2023-02-15T09:56:38.553Z,23.48
2023-02-15T10:01:53.528Z,22.77
2023-02-15T10:07:09.290Z,20.38
2023-02-15T10:12:25.399Z,21.27
2023-02-15T10:17:58.085Z,19.50
2023-02-15T10:23:09.834Z,22.38
2023-02-15T10:28:19.660Z,19.50
2023-02-15T10:33:40.148Z,20.13
2023-02-15T10:38:49.078Z,22.55
2023-02-15T10:44:06.401Z,21.60
2023-02-15T10:49:27.372Z,20.95
2023-02-15T10:54:46.938Z,19.52
2023-02-15T11:00:16.159Z,22.00
2023-02-15T11:05:40.644Z,19.73
2023-02-15T11:10:49.709Z,21.80
2023-02-15T11:15:58.525Z,22.38
2023-02-15T11:21:18.992Z,20.98
2023-02-15T11:26:26.428Z,21.05
2023-02-15T11:31:48.330Z,22.35
2023-02-15T11:36:53.189Z,22.33
2023-02-15T11:42:01.785Z,21.63
2023-02-15T11:47:03.995Z,20.05
2023-02-15T11:52:14.251Z,22.52
2023-02-15T11:57:24.426Z,22.38
2023-02-15T12:02:30.974Z,21.38
2023-02-15T12:07:42.602Z,20.15
2023-02-15T12:12:44.774Z,21.73
2023-02-15T12:17:54.571Z,21.00
2023-02-15T12:23:03.389Z,20.63
2023-02-15T12:28:25.116Z,22.65
2023-02-15T12:33:37.371Z,22.80
2023-02-15T12:38:39.519Z,21.77
2023-02-15T12:43:41.368Z,22.15
2023-02-15T12:48:43.132Z,21.90
2023-02-15T12:53:45.276Z,22.63
2023-02-15T12:58:47.061Z,22.80
2023-02-15T13:03:51.649Z,22.42
2023-02-15T13:09:12.878Z,23.63
2023-02-15T13:14:20.944Z,21.58
2023-02-15T13:19:41.863Z,22.73
2023-02-15T13:24:48.342Z,22.52
2023-02-15T13:29:59.326Z,51.88
2023-02-15T13:35:03.527Z,22.75
2023-02-15T13:40:12.738Z,22.77
2023-02-15T13:45:36.708Z,23.55
2023-02-15T13:50:51.873Z,23.48
2023-02-15T13:56:02.967Z,26.75
2023-02-15T14:01:20.347Z,25.17
2023-02-15T14:07:01.018Z,27.70
2023-02-15T14:12:27.624Z,26.60
2023-02-15T14:17:45.391Z,26.23
2023-02-15T14:23:01.249Z,26.50
2023-02-15T14:28:23.984Z,26.40
2023-02-15T14:38:52.825Z,24.80
2023-02-15T14:44:16.718Z,26.95
2023-02-15T14:49:23.533Z,25.83
2023-02-15T14:54:25.247Z,26.35
2023-02-15T14:59:37.068Z,27.50
2023-02-15T15:05:01.516Z,27.23
2023-02-15T15:10:18.533Z,22.75
2023-02-15T15:15:32.256Z,27.23
2023-02-15T15:20:50.210Z,25.77
2023-02-15T15:26:15.136Z,27.38
2023-02-15T15:31:29.169Z,26.38
2023-02-15T15:36:51.176Z,27.58
2023-02-15T15:42:07.670Z,27.63
2023-02-15T15:47:39.396Z,25.80
2023-02-15T15:52:50.035Z,26.80
2023-02-15T15:57:56.753Z,27.13
2023-02-15T16:02:58.739Z,26.70
2023-02-15T16:08:00.436Z,27.50
2023-02-15T16:13:02.995Z,26.30
2023-02-15T16:18:05.013Z,27.83
2023-02-15T16:23:34.504Z,27.20
2023-02-15T16:28:36.379Z,30.02
2023-02-15T16:33:39.765Z,28.00
2023-02-15T16:38:44.234Z,28.48
2023-02-15T16:43:49.163Z,26.95
2023-02-15T16:48:54.842Z,27.38
2023-02-15T16:54:01.343Z,25.83
2023-02-15T16:59:03.346Z,29.08
2023-02-15T17:04:35.602Z,29.02
2023-02-15T17:09:58.523Z,29.08
2023-02-15T17:20:02.994Z,30.02
2023-02-15T17:25:05.479Z,28.35
2023-02-15T17:30:21.922Z,32.00
2023-02-15T17:35:26.054Z,32.22
2023-02-15T17:40:31.334Z,29.85
2023-02-15T17:45:36.678Z,28.02
2023-02-15T17:50:38.873Z,32.10
2023-02-15T17:55:41.197Z,29.63
2023-02-15T18:01:05.518Z,29.63
2023-02-15T18:06:26.077Z,29.70
2023-02-15T18:11:37.618Z,33.35
2023-02-15T18:16:43.248Z,34.42
2023-02-15T18:21:46.481Z,31.30
2023-02-15T18:26:48.485Z,32.67
2023-02-15T18:31:54.044Z,35.30
2023-02-15T18:36:57.230Z,34.25
2023-02-15T18:41:59.150Z,35.83
2023-02-15T18:47:00.873Z,31.70
2023-02-15T18:52:02.855Z,32.63
2023-02-15T18:57:05.426Z,28.63
2023-02-15T19:02:13.455Z,33.53
2023-02-15T19:07:26.820Z,36.67
2023-02-15T19:12:28.765Z,37.85
2023-02-15T19:17:30.442Z,40.93
2023-02-15T19:22:34.024Z,35.85
2023-02-15T19:27:36.149Z,35.33
2023-02-15T19:32:37.858Z,32.83
2023-02-15T19:37:42.461Z,33.60
2023-02-15T19:42:44.546Z,33.38
2023-02-15T19:47:48.238Z,33.10
2023-02-15T19:52:50.400Z,33.83
2023-02-15T19:57:53.267Z,35.57
2023-02-15T20:02:56.647Z,32.45
2023-02-15T20:07:58.641Z,31.92
2023-02-15T20:13:02.219Z,34.97
2023-02-15T20:18:04.289Z,31.35
2023-02-15T20:23:07.153Z,34.38
2023-02-15T20:28:18.948Z,30.23
2023-02-15T20:33:24.020Z,31.08
2023-02-15T20:38:28.885Z,31.20
2023-02-15T20:43:30.775Z,34.72
2023-02-15T20:48:32.500Z,34.50
2023-02-15T20:53:34.193Z,27.40
2023-02-15T20:58:36.681Z,28.00
2023-02-15T21:03:38.598Z,27.80
2023-02-15T21:13:43.132Z,27.27
2023-02-15T21:18:44.880Z,33.83
2023-02-15T21:23:47.572Z,29.23
2023-02-15T21:28:50.315Z,28.83
2023-02-15T21:33:52.219Z,27.23
2023-02-15T21:38:54.272Z,25.58
2023-02-15T21:44:15.083Z,29.08
2023-02-15T21:49:19.165Z,37.25
2023-02-15T21:54:21.461Z,28.65
2023-02-15T21:59:25.450Z,25.58
2023-02-15T22:04:30.089Z,24.48
2023-02-15T22:09:31.851Z,26.45
2023-02-15T22:14:41.441Z,24.63
2023-02-15T22:19:47.483Z,24.27
2023-02-15T22:24:49.416Z,22.73
2023-02-15T22:29:52.099Z,23.90
2023-02-15T22:34:54.315Z,24.00
2023-02-15T22:39:56.151Z,25.58
2023-02-15T22:44:58.426Z,22.67
2023-02-15T22:55:02.074Z,20.85
2023-02-15T23:00:06.237Z,21.60
2023-02-15T23:05:17.774Z,23.15
2023-02-15T23:10:23.241Z,20.90
2023-02-15T23:15:24.935Z,22.77
2023-02-15T23:20:26.715Z,23.00
2023-02-15T23:25:28.655Z,25.73
2023-02-15T23:30:30.828Z,24.23
2023-02-15T23:35:32.637Z,26.45
2023-02-15T23:40:53.040Z,24.07
2023-02-15T23:45:54.724Z,24.25
2023-02-15T23:50:57.087Z,24.57
2023-02-15T23:56:02.501Z,26.20
